sensor_id;sensor_type;location;lat;lon;timestamp;temperature;humidity
22544;DHT22;11438;52.044;8.716;2022-09-20T00:00:27;15.10;93.20
22544;DHT22;11438;52.044;8.716;2022-09-20T00:02:52;15.10;93.20
22544;DHT22;11438;52.044;8.716;2022-09-20T00:05:18;15.00;93.20
22544;DHT22;11438;52.044;8.716;2022-09-20T00:07:44;15.00;93.10
22544;DHT22;11438;52.044;8.716;2022-09-20T00:10:10;15.00;93.10
22544;DHT22;11438;52.044;8.716;2022-09-20T00:12:36;15.00;93.10
22544;DHT22;11438;52.044;8.716;2022-09-20T00:15:02;15.00;93.10
22544;DHT22;11438;52.044;8.716;2022-09-20T00:17:28;14.90;93.00
22544;DHT22;11438;52.044;8.716;2022-09-20T00:19:53;14.90;93.00
22544;DHT22;11438;52.044;8.716;2022-09-20T00:22:19;14.90;93.10
22544;DHT22;11438;52.044;8.716;2022-09-20T00:24:44;14.80;93.00
22544;DHT22;11438;52.044;8.716;2022-09-20T00:27:10;14.80;93.00
22544;DHT22;11438;52.044;8.716;2022-09-20T00:29:36;14.80;93.10
22544;DHT22;11438;52.044;8.716;2022-09-20T00:32:01;14.80;93.20
22544;DHT22;11438;52.044;8.716;2022-09-20T00:34:27;14.70;93.20
22544;DHT22;11438;52.044;8.716;2022-09-20T00:37:11;14.70;93.30
22544;DHT22;11438;52.044;8.716;2022-09-20T00:39:36;14.70;93.30
22544;DHT22;11438;52.044;8.716;2022-09-20T00:42:02;14.70;93.30
22544;DHT22;11438;52.044;8.716;2022-09-20T00:49:58;14.60;93.40
22544;DHT22;11438;52.044;8.716;2022-09-20T00:52:26;14.60;93.30
22544;DHT22;11438;52.044;8.716;2022-09-20T00:54:53;14.60;93.30
22544;DHT22;11438;52.044;8.716;2022-09-20T00:57:19;14.60;93.40
22544;DHT22;11438;52.044;8.716;2022-09-20T00:59:46;14.60;93.40
22544;DHT22;11438;52.044;8.716;2022-09-20T01:02:19;14.60;93.40
22544;DHT22;11438;52.044;8.716;2022-09-20T01:04:47;14.50;93.40
22544;DHT22;11438;52.044;8.716;2022-09-20T01:07:16;14.50;93.40
22544;DHT22;11438;52.044;8.716;2022-09-20T01:09:44;14.50;93.50
22544;DHT22;11438;52.044;8.716;2022-09-20T01:12:17;14.40;93.50
22544;DHT22;11438;52.044;8.716;2022-09-20T01:14:44;14.40;93.50
22544;DHT22;11438;52.044;8.716;2022-09-20T01:17:11;14.40;93.60
22544;DHT22;11438;52.044;8.716;2022-09-20T01:28:07;14.30;93.70
22544;DHT22;11438;52.044;8.716;2022-09-20T01:30:44;14.20;93.70
22544;DHT22;11438;52.044;8.716;2022-09-20T01:33:24;14.20;93.80
22544;DHT22;11438;52.044;8.716;2022-09-20T01:35:52;14.20;93.80
22544;DHT22;11438;52.044;8.716;2022-09-20T01:38:24;14.20;93.80
22544;DHT22;11438;52.044;8.716;2022-09-20T01:41:19;14.20;94.20
22544;DHT22;11438;52.044;8.716;2022-09-20T01:44:12;14.10;93.90
22544;DHT22;11438;52.044;8.716;2022-09-20T01:46:41;14.10;93.90
22544;DHT22;11438;52.044;8.716;2022-09-20T01:51:51;14.10;94.00
22544;DHT22;11438;52.044;8.716;2022-09-20T02:00:47;14.00;94.20
22544;DHT22;11438;52.044;8.716;2022-09-20T02:09:14;14.00;94.20
22544;DHT22;11438;52.044;8.716;2022-09-20T02:12:22;14.00;94.20
22544;DHT22;11438;52.044;8.716;2022-09-20T02:15:16;13.90;94.30
22544;DHT22;11438;52.044;8.716;2022-09-20T02:20:32;13.90;94.30
22544;DHT22;11438;52.044;8.716;2022-09-20T02:23:16;13.90;94.40
22544;DHT22;11438;52.044;8.716;2022-09-20T02:26:29;13.80;94.40
22544;DHT22;11438;52.044;8.716;2022-09-20T02:28:55;13.80;94.50
22544;DHT22;11438;52.044;8.716;2022-09-20T02:31:48;13.80;94.50
22544;DHT22;11438;52.044;8.716;2022-09-20T02:37:04;13.80;94.60
22544;DHT22;11438;52.044;8.716;2022-09-20T02:39:44;13.80;94.70
22544;DHT22;11438;52.044;8.716;2022-09-20T02:42:23;13.80;94.70
22544;DHT22;11438;52.044;8.716;2022-09-20T02:47:40;13.80;94.80
22544;DHT22;11438;52.044;8.716;2022-09-20T02:50:44;13.80;94.80
22544;DHT22;11438;52.044;8.716;2022-09-20T02:53:33;13.80;94.80
22544;DHT22;11438;52.044;8.716;2022-09-20T02:58:58;13.90;94.80
22544;DHT22;11438;52.044;8.716;2022-09-20T03:01:52;13.90;94.90
22544;DHT22;11438;52.044;8.716;2022-09-20T03:05:05;13.90;94.90
22544;DHT22;11438;52.044;8.716;2022-09-20T03:11:01;13.90;94.80
22544;DHT22;11438;52.044;8.716;2022-09-20T03:22:17;13.90;94.90
22544;DHT22;11438;52.044;8.716;2022-09-20T03:33:22;13.80;94.80
22544;DHT22;11438;52.044;8.716;2022-09-20T03:38:41;13.80;94.80
22544;DHT22;11438;52.044;8.716;2022-09-20T03:41:30;13.80;94.80
22544;DHT22;11438;52.044;8.716;2022-09-20T03:44:30;13.80;94.80
22544;DHT22;11438;52.044;8.716;2022-09-20T03:47:25;13.80;94.80
22544;DHT22;11438;52.044;8.716;2022-09-20T04:01:10;13.70;94.80
22544;DHT22;11438;52.044;8.716;2022-09-20T04:09:55;13.60;94.90
22544;DHT22;11438;52.044;8.716;2022-09-20T04:18:42;13.60;95.00
22544;DHT22;11438;52.044;8.716;2022-09-20T04:20:59;13.50;95.10
22544;DHT22;11438;52.044;8.716;2022-09-20T04:26:33;13.50;95.30
22544;DHT22;11438;52.044;8.716;2022-09-20T04:29:28;13.50;95.30
22544;DHT22;11438;52.044;8.716;2022-09-20T04:32:13;13.50;95.40
22544;DHT22;11438;52.044;8.716;2022-09-20T04:35:04;13.50;95.50
22544;DHT22;11438;52.044;8.716;2022-09-20T04:37:54;13.50;95.50
22544;DHT22;11438;52.044;8.716;2022-09-20T04:46:01;13.40;95.50
22544;DHT22;11438;52.044;8.716;2022-09-20T04:49:05;13.40;95.60
22544;DHT22;11438;52.044;8.716;2022-09-20T04:51:54;13.40;95.50
22544;DHT22;11438;52.044;8.716;2022-09-20T05:03:49;13.50;95.40
22544;DHT22;11438;52.044;8.716;2022-09-20T05:15:32;13.40;95.40
22544;DHT22;11438;52.044;8.716;2022-09-20T05:18:25;13.40;95.40
22544;DHT22;11438;52.044;8.716;2022-09-20T05:21:12;13.40;95.40
22544;DHT22;11438;52.044;8.716;2022-09-20T05:29:46;13.40;95.40
22544;DHT22;11438;52.044;8.716;2022-09-20T05:32:35;13.40;95.40
22544;DHT22;11438;52.044;8.716;2022-09-20T05:35:25;13.30;95.40
22544;DHT22;11438;52.044;8.716;2022-09-20T05:43:26;13.30;95.30
22544;DHT22;11438;52.044;8.716;2022-09-20T05:46:13;13.30;95.40
22544;DHT22;11438;52.044;8.716;2022-09-20T05:48:55;13.30;95.40
22544;DHT22;11438;52.044;8.716;2022-09-20T06:00:03;13.40;95.80
22544;DHT22;11438;52.044;8.716;2022-09-20T06:02:45;13.40;95.90
22544;DHT22;11438;52.044;8.716;2022-09-20T06:05:32;13.40;96.00
22544;DHT22;11438;52.044;8.716;2022-09-20T06:19:41;13.60;96.30
22544;DHT22;11438;52.044;8.716;2022-09-20T06:22:36;13.60;96.00
22544;DHT22;11438;52.044;8.716;2022-09-20T06:27:41;13.70;96.00
22544;DHT22;11438;52.044;8.716;2022-09-20T06:30:32;13.70;95.90
22544;DHT22;11438;52.044;8.716;2022-09-20T06:35:46;13.80;95.90
22544;DHT22;11438;52.044;8.716;2022-09-20T06:38:44;13.80;95.90
22544;DHT22;11438;52.044;8.716;2022-09-20T06:41:32;13.90;95.90
22544;DHT22;11438;52.044;8.716;2022-09-20T06:44:00;14.00;95.80
22544;DHT22;11438;52.044;8.716;2022-09-20T06:46:27;14.00;95.80
22544;DHT22;11438;52.044;8.716;2022-09-20T06:48:53;14.00;95.80
22544;DHT22;11438;52.044;8.716;2022-09-20T06:51:20;14.10;95.80
22544;DHT22;11438;52.044;8.716;2022-09-20T06:53:46;14.10;95.70
22544;DHT22;11438;52.044;8.716;2022-09-20T06:56:15;14.20;95.70
22544;DHT22;11438;52.044;8.716;2022-09-20T06:58:42;14.20;95.70
22544;DHT22;11438;52.044;8.716;2022-09-20T07:01:07;14.30;95.70
22544;DHT22;11438;52.044;8.716;2022-09-20T07:03:33;14.30;95.60
22544;DHT22;11438;52.044;8.716;2022-09-20T07:05:58;14.40;95.70
22544;DHT22;11438;52.044;8.716;2022-09-20T07:08:28;14.40;95.70
22544;DHT22;11438;52.044;8.716;2022-09-20T07:10:54;14.50;95.70
22544;DHT22;11438;52.044;8.716;2022-09-20T07:13:19;14.50;95.70
22544;DHT22;11438;52.044;8.716;2022-09-20T07:15:45;14.60;95.60
22544;DHT22;11438;52.044;8.716;2022-09-20T07:18:11;14.60;95.60
22544;DHT22;11438;52.044;8.716;2022-09-20T07:20:36;14.70;95.60
22544;DHT22;11438;52.044;8.716;2022-09-20T07:23:02;14.70;95.50
22544;DHT22;11438;52.044;8.716;2022-09-20T07:25:29;14.70;95.50
22544;DHT22;11438;52.044;8.716;2022-09-20T07:27:54;14.80;95.50
22544;DHT22;11438;52.044;8.716;2022-09-20T07:30:20;14.80;95.50
22544;DHT22;11438;52.044;8.716;2022-09-20T07:32:46;14.80;95.50
22544;DHT22;11438;52.044;8.716;2022-09-20T07:35:11;14.90;95.50
22544;DHT22;11438;52.044;8.716;2022-09-20T07:37:37;14.90;95.40
22544;DHT22;11438;52.044;8.716;2022-09-20T07:40:07;14.90;95.30
22544;DHT22;11438;52.044;8.716;2022-09-20T07:42:33;15.00;95.20
22544;DHT22;11438;52.044;8.716;2022-09-20T07:44:59;15.00;95.30
22544;DHT22;11438;52.044;8.716;2022-09-20T07:47:28;15.00;95.30
22544;DHT22;11438;52.044;8.716;2022-09-20T07:49:56;15.00;95.30
22544;DHT22;11438;52.044;8.716;2022-09-20T07:52:22;15.00;95.30
22544;DHT22;11438;52.044;8.716;2022-09-20T07:54:47;15.10;95.40
22544;DHT22;11438;52.044;8.716;2022-09-20T07:57:14;15.10;95.40
22544;DHT22;11438;52.044;8.716;2022-09-20T07:59:40;15.10;95.30
22544;DHT22;11438;52.044;8.716;2022-09-20T08:02:06;15.20;95.30
22544;DHT22;11438;52.044;8.716;2022-09-20T08:04:31;15.20;95.20
22544;DHT22;11438;52.044;8.716;2022-09-20T08:06:57;15.20;95.20
22544;DHT22;11438;52.044;8.716;2022-09-20T08:09:23;15.20;95.20
22544;DHT22;11438;52.044;8.716;2022-09-20T08:11:49;15.30;95.20
22544;DHT22;11438;52.044;8.716;2022-09-20T08:14:16;15.30;95.10
22544;DHT22;11438;52.044;8.716;2022-09-20T08:16:44;15.30;95.10
22544;DHT22;11438;52.044;8.716;2022-09-20T08:19:21;15.30;95.10
22544;DHT22;11438;52.044;8.716;2022-09-20T08:21:48;15.40;95.10
22544;DHT22;11438;52.044;8.716;2022-09-20T08:24:14;15.40;95.00
22544;DHT22;11438;52.044;8.716;2022-09-20T08:26:40;15.40;95.00
22544;DHT22;11438;52.044;8.716;2022-09-20T08:29:06;15.50;95.40
22544;DHT22;11438;52.044;8.716;2022-09-20T08:31:35;15.50;95.00
22544;DHT22;11438;52.044;8.716;2022-09-20T08:34:02;15.60;95.10
22544;DHT22;11438;52.044;8.716;2022-09-20T08:36:29;15.60;95.10
22544;DHT22;11438;52.044;8.716;2022-09-20T08:38:55;15.60;95.10
22544;DHT22;11438;52.044;8.716;2022-09-20T08:44:02;15.80;95.20
22544;DHT22;11438;52.044;8.716;2022-09-20T08:46:32;15.80;95.20
22544;DHT22;11438;52.044;8.716;2022-09-20T08:49:03;15.90;95.00
22544;DHT22;11438;52.044;8.716;2022-09-20T08:51:32;16.00;95.00
22544;DHT22;11438;52.044;8.716;2022-09-20T08:53:59;16.00;94.80
22544;DHT22;11438;52.044;8.716;2022-09-20T08:56:31;16.10;94.90
22544;DHT22;11438;52.044;8.716;2022-09-20T08:58:58;16.10;94.80
22544;DHT22;11438;52.044;8.716;2022-09-20T09:01:27;16.20;94.90
22544;DHT22;11438;52.044;8.716;2022-09-20T09:06:43;16.30;94.70
22544;DHT22;11438;52.044;8.716;2022-09-20T09:09:17;16.30;94.50
22544;DHT22;11438;52.044;8.716;2022-09-20T09:11:44;16.40;94.50
22544;DHT22;11438;52.044;8.716;2022-09-20T09:14:26;16.40;94.70
22544;DHT22;11438;52.044;8.716;2022-09-20T09:17:12;16.40;94.60
22544;DHT22;11438;52.044;8.716;2022-09-20T09:22:08;16.50;94.30
22544;DHT22;11438;52.044;8.716;2022-09-20T09:24:34;16.60;94.30
22544;DHT22;11438;52.044;8.716;2022-09-20T09:27:15;16.60;94.20
22544;DHT22;11438;52.044;8.716;2022-09-20T09:32:33;16.80;94.30
22544;DHT22;11438;52.044;8.716;2022-09-20T09:35:22;16.80;94.00
22544;DHT22;11438;52.044;8.716;2022-09-20T09:37:57;16.90;94.00
22544;DHT22;11438;52.044;8.716;2022-09-20T09:40:23;17.00;94.00
22544;DHT22;11438;52.044;8.716;2022-09-20T09:42:59;17.10;93.90
22544;DHT22;11438;52.044;8.716;2022-09-20T09:45:32;17.20;93.60
22544;DHT22;11438;52.044;8.716;2022-09-20T09:48:01;17.30;93.50
22544;DHT22;11438;52.044;8.716;2022-09-20T09:50:32;17.40;93.30
22544;DHT22;11438;52.044;8.716;2022-09-20T09:53:11;17.40;93.20
22544;DHT22;11438;52.044;8.716;2022-09-20T09:59:15;17.50;91.90
22544;DHT22;11438;52.044;8.716;2022-09-20T10:05:02;17.60;91.80
22544;DHT22;11438;52.044;8.716;2022-09-20T10:19:44;17.70;91.00
22544;DHT22;11438;52.044;8.716;2022-09-20T10:25:06;17.70;91.30
22544;DHT22;11438;52.044;8.716;2022-09-20T10:30:31;17.70;90.80
22544;DHT22;11438;52.044;8.716;2022-09-20T10:33:14;17.70;90.40
22544;DHT22;11438;52.044;8.716;2022-09-20T10:35:46;17.70;90.70
22544;DHT22;11438;52.044;8.716;2022-09-20T10:38:20;17.70;90.80
22544;DHT22;11438;52.044;8.716;2022-09-20T10:41:19;17.70;90.50
22544;DHT22;11438;52.044;8.716;2022-09-20T10:47:18;17.70;90.10
22544;DHT22;11438;52.044;8.716;2022-09-20T10:53:01;17.70;90.30
22544;DHT22;11438;52.044;8.716;2022-09-20T11:01:19;17.90;89.60
22544;DHT22;11438;52.044;8.716;2022-09-20T11:09:17;17.90;90.40
22544;DHT22;11438;52.044;8.716;2022-09-20T11:11:50;17.90;90.00
22544;DHT22;11438;52.044;8.716;2022-09-20T11:14:21;17.90;89.50
22544;DHT22;11438;52.044;8.716;2022-09-20T11:17:02;17.90;89.30
22544;DHT22;11438;52.044;8.716;2022-09-20T11:19:31;17.80;89.60
22544;DHT22;11438;52.044;8.716;2022-09-20T11:22:07;17.80;89.50
22544;DHT22;11438;52.044;8.716;2022-09-20T11:24:40;17.80;89.70
22544;DHT22;11438;52.044;8.716;2022-09-20T11:27:19;17.70;90.00
22544;DHT22;11438;52.044;8.716;2022-09-20T11:32:34;17.70;90.50
22544;DHT22;11438;52.044;8.716;2022-09-20T11:35:24;17.60;90.60
22544;DHT22;11438;52.044;8.716;2022-09-20T11:41:03;17.70;90.90
22544;DHT22;11438;52.044;8.716;2022-09-20T11:43:30;17.70;90.90
22544;DHT22;11438;52.044;8.716;2022-09-20T11:46:02;17.80;91.00
22544;DHT22;11438;52.044;8.716;2022-09-20T11:48:34;17.80;91.20
22544;DHT22;11438;52.044;8.716;2022-09-20T11:54:40;18.00;90.80
22544;DHT22;11438;52.044;8.716;2022-09-20T11:57:13;18.10;90.40
22544;DHT22;11438;52.044;8.716;2022-09-20T11:59:42;18.20;90.50
22544;DHT22;11438;52.044;8.716;2022-09-20T12:02:50;18.20;90.60
22544;DHT22;11438;52.044;8.716;2022-09-20T12:05:39;18.20;90.40
22544;DHT22;11438;52.044;8.716;2022-09-20T12:08:23;18.20;90.10
22544;DHT22;11438;52.044;8.716;2022-09-20T12:11:03;18.10;90.00
22544;DHT22;11438;52.044;8.716;2022-09-20T12:13:32;18.10;89.90
22544;DHT22;11438;52.044;8.716;2022-09-20T12:18:45;18.00;89.70
22544;DHT22;11438;52.044;8.716;2022-09-20T12:21:13;18.00;90.20
22544;DHT22;11438;52.044;8.716;2022-09-20T12:24:29;18.00;90.30
22544;DHT22;11438;52.044;8.716;2022-09-20T12:26:39;18.00;90.50
22544;DHT22;11438;52.044;8.716;2022-09-20T12:31:53;18.00;90.30
22544;DHT22;11438;52.044;8.716;2022-09-20T12:39:28;18.00;90.10
22544;DHT22;11438;52.044;8.716;2022-09-20T12:47:28;18.10;89.30
22544;DHT22;11438;52.044;8.716;2022-09-20T12:49:56;18.20;87.50
22544;DHT22;11438;52.044;8.716;2022-09-20T13:05:45;18.50;85.40
22544;DHT22;11438;52.044;8.716;2022-09-20T13:10:41;18.50;85.50
22544;DHT22;11438;52.044;8.716;2022-09-20T13:13:27;18.50;84.60
22544;DHT22;11438;52.044;8.716;2022-09-20T13:15:54;18.50;84.20
22544;DHT22;11438;52.044;8.716;2022-09-20T13:18:22;18.50;83.10
22544;DHT22;11438;52.044;8.716;2022-09-20T13:20:49;18.50;82.40
22544;DHT22;11438;52.044;8.716;2022-09-20T13:23:19;18.50;81.80
22544;DHT22;11438;52.044;8.716;2022-09-20T13:25:47;18.50;81.60
22544;DHT22;11438;52.044;8.716;2022-09-20T13:28:36;18.50;81.70
22544;DHT22;11438;52.044;8.716;2022-09-20T13:33:45;18.50;82.20
22544;DHT22;11438;52.044;8.716;2022-09-20T13:36:11;18.60;81.90
22544;DHT22;11438;52.044;8.716;2022-09-20T13:38:37;18.60;80.90
22544;DHT22;11438;52.044;8.716;2022-09-20T13:41:07;18.60;81.50
22544;DHT22;11438;52.044;8.716;2022-09-20T13:43:44;18.60;79.90
22544;DHT22;11438;52.044;8.716;2022-09-20T13:46:21;18.70;80.90
22544;DHT22;11438;52.044;8.716;2022-09-20T13:49:11;18.70;79.40
22544;DHT22;11438;52.044;8.716;2022-09-20T13:51:37;18.70;79.30
22544;DHT22;11438;52.044;8.716;2022-09-20T13:54:29;18.80;79.80
22544;DHT22;11438;52.044;8.716;2022-09-20T13:57:01;18.80;79.20
22544;DHT22;11438;52.044;8.716;2022-09-20T13:59:41;18.80;79.50
22544;DHT22;11438;52.044;8.716;2022-09-20T14:02:31;18.90;80.50
22544;DHT22;11438;52.044;8.716;2022-09-20T14:05:01;19.00;79.60
22544;DHT22;11438;52.044;8.716;2022-09-20T14:07:28;19.00;80.40
22544;DHT22;11438;52.044;8.716;2022-09-20T14:09:55;19.10;81.10
22544;DHT22;11438;52.044;8.716;2022-09-20T14:12:24;19.20;80.70
22544;DHT22;11438;52.044;8.716;2022-09-20T14:14:50;19.20;80.70
22544;DHT22;11438;52.044;8.716;2022-09-20T14:17:19;19.30;80.90
22544;DHT22;11438;52.044;8.716;2022-09-20T14:19:47;19.30;79.90
22544;DHT22;11438;52.044;8.716;2022-09-20T14:22:32;19.30;79.10
22544;DHT22;11438;52.044;8.716;2022-09-20T14:25:17;19.20;80.10
22544;DHT22;11438;52.044;8.716;2022-09-20T14:27:43;19.20;80.80
22544;DHT22;11438;52.044;8.716;2022-09-20T14:30:32;19.20;80.60
22544;DHT22;11438;52.044;8.716;2022-09-20T14:33:01;19.10;80.90
22544;DHT22;11438;52.044;8.716;2022-09-20T14:35:27;19.00;81.20
22544;DHT22;11438;52.044;8.716;2022-09-20T14:37:55;18.90;82.40
22544;DHT22;11438;52.044;8.716;2022-09-20T14:40:31;18.80;83.20
22544;DHT22;11438;52.044;8.716;2022-09-20T14:43:05;18.80;84.20
22544;DHT22;11438;52.044;8.716;2022-09-20T14:45:33;18.70;84.20
22544;DHT22;11438;52.044;8.716;2022-09-20T14:48:35;18.70;84.80
22544;DHT22;11438;52.044;8.716;2022-09-20T14:56:36;18.60;87.20
22544;DHT22;11438;52.044;8.716;2022-09-20T15:02:14;18.60;86.90
22544;DHT22;11438;52.044;8.716;2022-09-20T15:04:41;18.60;87.40
22544;DHT22;11438;52.044;8.716;2022-09-20T15:07:15;18.60;87.40
22544;DHT22;11438;52.044;8.716;2022-09-20T15:09:41;18.50;87.30
22544;DHT22;11438;52.044;8.716;2022-09-20T15:12:12;18.50;87.40
22544;DHT22;11438;52.044;8.716;2022-09-20T15:14:38;18.50;87.80
22544;DHT22;11438;52.044;8.716;2022-09-20T15:17:06;18.50;87.80
22544;DHT22;11438;52.044;8.716;2022-09-20T15:19:34;18.50;88.00
22544;DHT22;11438;52.044;8.716;2022-09-20T15:21:59;18.40;88.40
22544;DHT22;11438;52.044;8.716;2022-09-20T15:24:25;18.40;88.60
22544;DHT22;11438;52.044;8.716;2022-09-20T15:26:51;18.40;89.00
22544;DHT22;11438;52.044;8.716;2022-09-20T15:29:17;18.40;88.80
22544;DHT22;11438;52.044;8.716;2022-09-20T15:31:44;18.40;88.80
22544;DHT22;11438;52.044;8.716;2022-09-20T15:34:11;18.40;88.60
22544;DHT22;11438;52.044;8.716;2022-09-20T15:36:38;18.40;88.60
22544;DHT22;11438;52.044;8.716;2022-09-20T15:39:04;18.50;89.00
22544;DHT22;11438;52.044;8.716;2022-09-20T15:41:29;18.50;88.70
22544;DHT22;11438;52.044;8.716;2022-09-20T15:43:55;18.50;88.60
22544;DHT22;11438;52.044;8.716;2022-09-20T15:46:23;18.50;88.70
22544;DHT22;11438;52.044;8.716;2022-09-20T15:48:51;18.50;88.70
22544;DHT22;11438;52.044;8.716;2022-09-20T15:51:17;18.50;89.10
22544;DHT22;11438;52.044;8.716;2022-09-20T15:53:54;18.50;89.00
22544;DHT22;11438;52.044;8.716;2022-09-20T15:56:22;18.50;89.20
22544;DHT22;11438;52.044;8.716;2022-09-20T15:58:52;18.50;89.00
22544;DHT22;11438;52.044;8.716;2022-09-20T16:01:26;18.50;89.60
22544;DHT22;11438;52.044;8.716;2022-09-20T16:03:52;18.50;89.80
22544;DHT22;11438;52.044;8.716;2022-09-20T16:06:18;18.40;89.50
22544;DHT22;11438;52.044;8.716;2022-09-20T16:08:44;18.40;89.40
22544;DHT22;11438;52.044;8.716;2022-09-20T16:11:13;18.40;89.10
22544;DHT22;11438;52.044;8.716;2022-09-20T16:13:39;18.40;89.50
22544;DHT22;11438;52.044;8.716;2022-09-20T16:16:06;18.30;89.70
22544;DHT22;11438;52.044;8.716;2022-09-20T16:18:34;18.30;90.00
22544;DHT22;11438;52.044;8.716;2022-09-20T16:21:19;18.30;90.10
22544;DHT22;11438;52.044;8.716;2022-09-20T16:23:53;18.30;90.10
22544;DHT22;11438;52.044;8.716;2022-09-20T16:26:20;18.30;90.10
22544;DHT22;11438;52.044;8.716;2022-09-20T16:28:47;18.30;90.20
22544;DHT22;11438;52.044;8.716;2022-09-20T16:34:02;18.30;90.40
22544;DHT22;11438;52.044;8.716;2022-09-20T16:36:28;18.30;90.40
22544;DHT22;11438;52.044;8.716;2022-09-20T16:38:54;18.30;90.50
22544;DHT22;11438;52.044;8.716;2022-09-20T16:41:20;18.30;90.40
22544;DHT22;11438;52.044;8.716;2022-09-20T16:43:48;18.30;90.40
22544;DHT22;11438;52.044;8.716;2022-09-20T16:46:25;18.30;90.30
22544;DHT22;11438;52.044;8.716;2022-09-20T16:48:53;18.30;90.30
22544;DHT22;11438;52.044;8.716;2022-09-20T16:51:28;18.30;90.40
22544;DHT22;11438;52.044;8.716;2022-09-20T16:53:56;18.30;90.50
22544;DHT22;11438;52.044;8.716;2022-09-20T16:56:26;18.30;90.40
22544;DHT22;11438;52.044;8.716;2022-09-20T16:58:54;18.30;90.40
22544;DHT22;11438;52.044;8.716;2022-09-20T17:01:20;18.30;90.40
22544;DHT22;11438;52.044;8.716;2022-09-20T17:03:46;18.30;90.40
22544;DHT22;11438;52.044;8.716;2022-09-20T17:06:13;18.20;90.40
22544;DHT22;11438;52.044;8.716;2022-09-20T17:08:39;18.20;90.30
22544;DHT22;11438;52.044;8.716;2022-09-20T17:11:06;18.20;90.20
22544;DHT22;11438;52.044;8.716;2022-09-20T17:13:34;18.20;90.30
22544;DHT22;11438;52.044;8.716;2022-09-20T17:16:01;18.10;90.30
22544;DHT22;11438;52.044;8.716;2022-09-20T17:18:27;18.10;90.30
22544;DHT22;11438;52.044;8.716;2022-09-20T17:20:53;18.00;90.30
22544;DHT22;11438;52.044;8.716;2022-09-20T17:23:18;18.00;90.60
22544;DHT22;11438;52.044;8.716;2022-09-20T17:25:45;17.90;90.30
22544;DHT22;11438;52.044;8.716;2022-09-20T17:28:12;17.80;90.50
22544;DHT22;11438;52.044;8.716;2022-09-20T17:30:39;17.80;90.60
22544;DHT22;11438;52.044;8.716;2022-09-20T17:33:05;17.70;90.60
22544;DHT22;11438;52.044;8.716;2022-09-20T17:35:31;17.60;90.50
22544;DHT22;11438;52.044;8.716;2022-09-20T17:37:57;17.60;90.50
22544;DHT22;11438;52.044;8.716;2022-09-20T17:40:22;17.50;90.40
22544;DHT22;11438;52.044;8.716;2022-09-20T17:42:48;17.40;90.30
22544;DHT22;11438;52.044;8.716;2022-09-20T17:45:13;17.40;90.20
22544;DHT22;11438;52.044;8.716;2022-09-20T17:47:39;17.30;90.20
22544;DHT22;11438;52.044;8.716;2022-09-20T17:50:08;17.20;90.30
22544;DHT22;11438;52.044;8.716;2022-09-20T17:52:40;17.20;90.30
22544;DHT22;11438;52.044;8.716;2022-09-20T17:55:06;17.10;90.30
22544;DHT22;11438;52.044;8.716;2022-09-20T17:57:32;17.00;90.40
22544;DHT22;11438;52.044;8.716;2022-09-20T17:59:58;16.90;90.40
22544;DHT22;11438;52.044;8.716;2022-09-20T18:02:23;16.90;90.40
22544;DHT22;11438;52.044;8.716;2022-09-20T18:04:49;16.80;90.40
22544;DHT22;11438;52.044;8.716;2022-09-20T18:07:14;16.70;90.40
22544;DHT22;11438;52.044;8.716;2022-09-20T18:09:40;16.70;90.50
22544;DHT22;11438;52.044;8.716;2022-09-20T18:12:05;16.60;90.50
22544;DHT22;11438;52.044;8.716;2022-09-20T18:14:31;16.60;90.50
22544;DHT22;11438;52.044;8.716;2022-09-20T18:16:58;16.50;90.50
22544;DHT22;11438;52.044;8.716;2022-09-20T18:19:25;16.50;90.50
22544;DHT22;11438;52.044;8.716;2022-09-20T18:21:57;16.40;90.50
22544;DHT22;11438;52.044;8.716;2022-09-20T18:24:22;16.30;90.50
22544;DHT22;11438;52.044;8.716;2022-09-20T18:26:48;16.30;90.50
22544;DHT22;11438;52.044;8.716;2022-09-20T18:29:15;16.20;90.60
22544;DHT22;11438;52.044;8.716;2022-09-20T18:31:48;16.20;90.70
22544;DHT22;11438;52.044;8.716;2022-09-20T18:34:16;16.10;90.80
22544;DHT22;11438;52.044;8.716;2022-09-20T18:36:44;16.00;90.80
22544;DHT22;11438;52.044;8.716;2022-09-20T18:39:10;16.00;90.80
22544;DHT22;11438;52.044;8.716;2022-09-20T18:41:37;16.00;90.80
22544;DHT22;11438;52.044;8.716;2022-09-20T18:44:05;15.90;90.90
22544;DHT22;11438;52.044;8.716;2022-09-20T18:46:33;15.90;90.90
22544;DHT22;11438;52.044;8.716;2022-09-20T18:49:05;15.80;90.90
22544;DHT22;11438;52.044;8.716;2022-09-20T18:51:31;15.80;91.00
22544;DHT22;11438;52.044;8.716;2022-09-20T18:53:57;15.70;91.00
22544;DHT22;11438;52.044;8.716;2022-09-20T18:56:27;15.70;91.00
22544;DHT22;11438;52.044;8.716;2022-09-20T18:58:55;15.60;91.10
22544;DHT22;11438;52.044;8.716;2022-09-20T19:12:44;15.40;91.20
22544;DHT22;11438;52.044;8.716;2022-09-20T19:21:22;15.30;91.30
22544;DHT22;11438;52.044;8.716;2022-09-20T19:26:34;15.20;91.30
22544;DHT22;11438;52.044;8.716;2022-09-20T19:29:07;15.20;91.30
22544;DHT22;11438;52.044;8.716;2022-09-20T19:31:37;15.10;91.40
22544;DHT22;11438;52.044;8.716;2022-09-20T19:34:10;15.10;91.40
22544;DHT22;11438;52.044;8.716;2022-09-20T19:37:03;15.00;91.50
22544;DHT22;11438;52.044;8.716;2022-09-20T19:48:50;14.90;91.40
22544;DHT22;11438;52.044;8.716;2022-09-20T19:51:21;14.90;91.40
22544;DHT22;11438;52.044;8.716;2022-09-20T19:53:46;14.80;91.50
22544;DHT22;11438;52.044;8.716;2022-09-20T19:56:22;14.80;91.50
22544;DHT22;11438;52.044;8.716;2022-09-20T19:58:49;14.70;91.50
22544;DHT22;11438;52.044;8.716;2022-09-20T20:01:18;14.70;91.50
22544;DHT22;11438;52.044;8.716;2022-09-20T20:03:45;14.70;91.60
22544;DHT22;11438;52.044;8.716;2022-09-20T20:11:41;14.60;91.60
22544;DHT22;11438;52.044;8.716;2022-09-20T20:23:24;14.40;91.50
22544;DHT22;11438;52.044;8.716;2022-09-20T20:28:38;14.40;91.50
22544;DHT22;11438;52.044;8.716;2022-09-20T20:31:04;14.30;91.50
22544;DHT22;11438;52.044;8.716;2022-09-20T20:33:30;14.30;91.60
22544;DHT22;11438;52.044;8.716;2022-09-20T20:35:59;14.20;91.50
22544;DHT22;11438;52.044;8.716;2022-09-20T20:38:25;14.20;91.60
22544;DHT22;11438;52.044;8.716;2022-09-20T20:41:05;14.20;91.60
22544;DHT22;11438;52.044;8.716;2022-09-20T20:43:33;14.20;91.70
22544;DHT22;11438;52.044;8.716;2022-09-20T20:46:00;14.10;91.70
22544;DHT22;11438;52.044;8.716;2022-09-20T20:48:26;14.10;91.70
22544;DHT22;11438;52.044;8.716;2022-09-20T20:51:08;14.00;91.70
22544;DHT22;11438;52.044;8.716;2022-09-20T20:53:36;14.00;91.70
22544;DHT22;11438;52.044;8.716;2022-09-20T20:56:07;14.00;91.70
22544;DHT22;11438;52.044;8.716;2022-09-20T20:58:34;14.00;91.70
22544;DHT22;11438;52.044;8.716;2022-09-20T21:01:24;13.90;91.70
22544;DHT22;11438;52.044;8.716;2022-09-20T21:03:52;13.90;91.70
22544;DHT22;11438;52.044;8.716;2022-09-20T21:06:19;13.90;91.70